Nikolaos A — SW8410 — position and weather

sailwx.info

Track history (hours):
 
Tides and Currents Weather Stations Pressure Air Temp Water Temp Dewpoint Dewpoint Depression Visibility Wind Speed Wind Dir Waves Ship Positions

Nikolaos A

Last reported at 2017-Dec-16 01:23 UTC. Time now 2017-Dec-17 08:23 UTC.
Position N 37°39' E 025°15'.

; draft 2.8 m.

Type: Fishing. MMSI: 237482000.

Date/timePositionNaut miles runAvg speedWind from/ knotsBaromVisibWave heightAir tempDewpointWater temp
2017-Dec-16 01:23N 37°39' E 025°15'4 3.7
2017-Dec-16 00:17N 37°35' E 025°16'2 8.2
2017-Dec-16 00:01N 37°33' E 025°15'4 8.2
2017-Dec-15 23:31N 37°30' E 025°11'4 8.7
2017-Dec-15 23:00N 37°28' E 025°07'9 1.5
2017-Dec-15 17:10N 37°21' E 024°60'2 9.0
2017-Dec-15 17:00N 37°21' E 024°58'5 9.1
2017-Dec-15 16:30N 37°21' E 024°52'5 9.0
2017-Dec-15 16:00N 37°23' E 024°47'2 2.9
2017-Dec-15 15:22N 37°24' E 024°45'1 3.2
2017-Dec-15 15:01N 37°23' E 024°45'2 3.2
2017-Dec-15 14:31N 37°21' E 024°45'2 3.2
2017-Dec-15 14:01N 37°19' E 024°45'2 3.2
2017-Dec-15 13:31N 37°18' E 024°45'2 3.2
2017-Dec-15 13:00N 37°16' E 024°46'3 3.1
2017-Dec-15 12:04N 37°14' E 024°47'0 3.2
2017-Dec-15 12:00N 37°13' E 024°47'2 3.1
2017-Dec-15 11:31N 37°12' E 024°47'2 3.2
2017-Dec-15 11:01N 37°10' E 024°47'2 3.2
2017-Dec-15 10:31N 37°09' E 024°47'2 3.2
2017-Dec-15 10:01N 37°07' E 024°46'1 1.0
2017-Dec-15 09:25N 37°07' E 024°47'1 1.6
2017-Dec-15 09:01N 37°07' E 024°47'2 3.2
2017-Dec-15 08:31N 37°09' E 024°47'2 3.2
2017-Dec-15 08:01N 37°10' E 024°47'2 3.2
2017-Dec-15 07:30N 37°12' E 024°47'2 3.2
2017-Dec-15 07:01N 37°14' E 024°47'2 3.2
2017-Dec-15 06:31N 37°15' E 024°46'2 3.2
2017-Dec-15 06:01N 37°17' E 024°46'2 3.2
2017-Dec-15 05:31N 37°18' E 024°45'2 3.2
2017-Dec-15 05:00N 37°20' E 024°45'2 3.2
2017-Dec-15 04:30N 37°21' E 024°45'2 3.2
2017-Dec-15 04:01N 37°23' E 024°44'14 7.6
2017-Dec-15 02:09N 37°29' E 024°28'5 0.5
2017-Dec-14 16:22N 37°30' E 024°22'9 4.0
2017-Dec-14 14:02N 37°25' E 024°32'0 3.2
2017-Dec-14 14:00N 37°25' E 024°32'2 3.2
2017-Dec-14 13:29N 37°23' E 024°32'2 3.2
2017-Dec-14 12:59N 37°22' E 024°33'2 3.2
2017-Dec-14 12:31N 37°21' E 024°34'2 3.2
2017-Dec-14 12:01N 37°20' E 024°36'3 3.2
2017-Dec-14 11:02N 37°18' E 024°39'0 3.2
2017-Dec-14 11:00N 37°18' E 024°39'2 3.2
2017-Dec-14 10:27N 37°17' E 024°41'1 3.2
2017-Dec-14 10:01N 37°16' E 024°42'2 3.1
2017-Dec-14 09:31N 37°16' E 024°44'3 4.0
2017-Dec-14 08:47N 37°15' E 024°48'0 1.0
2017-Dec-14 08:29N 37°15' E 024°47'1 1.9
2017-Dec-14 08:01N 37°14' E 024°47'2 3.2
2017-Dec-14 07:31N 37°12' E 024°47'2 3.2
2017-Dec-14 07:01N 37°11' E 024°47'2 3.2
2017-Dec-14 06:31N 37°09' E 024°47'2 3.3
2017-Dec-14 06:01N 37°07' E 024°47'2 3.2
2017-Dec-14 05:31N 37°06' E 024°47'2 3.2
2017-Dec-14 05:00N 37°04' E 024°46'2 3.2
2017-Dec-14 04:30N 37°03' E 024°46'2 4.0
2017-Dec-14 04:00N 37°01' E 024°48'3 5.0
2017-Dec-14 03:31N 37°03' E 024°50'4 8.6
2017-Dec-14 03:01N 37°06' E 024°54'2 4.1
2017-Dec-14 02:29N 37°07' E 024°56'1 3.1
2017-Dec-14 02:01N 37°09' E 024°56'2 3.2
2017-Dec-14 01:31N 37°10' E 024°56'2 3.2
2017-Dec-14 01:01N 37°12' E 024°57'2 3.1
2017-Dec-14 00:31N 37°13' E 024°57'2 3.2
2017-Dec-14 00:01N 37°15' E 024°58'2 3.2
2017-Dec-13 23:31N 37°17' E 024°58'2 3.4
2017-Dec-13 23:01N 37°18' E 024°58'5 2.4
2017-Dec-13 21:07N 37°20' E 024°53'0 3.3
2017-Dec-13 21:00N 37°20' E 024°52'2 3.2
2017-Dec-13 20:30N 37°20' E 024°50'1 2.0
2017-Dec-13 20:00N 37°21' E 024°50'2 3.2
2017-Dec-13 19:31N 37°20' E 024°52'2 3.2
2017-Dec-13 18:57N 37°19' E 024°54'1 3.1
2017-Dec-13 18:31N 37°18' E 024°54'2 3.2
2017-Dec-13 18:01N 37°16' E 024°55'2 3.2
2017-Dec-13 17:31N 37°15' E 024°55'2 3.2
2017-Dec-13 17:01N 37°13' E 024°55'2 3.2
2017-Dec-13 16:31N 37°12' E 024°56'3 6.1
2017-Dec-13 16:00N 37°09' E 024°55'4 8.9
2017-Dec-13 15:30N 37°05' E 024°53'4 8.9
2017-Dec-13 15:00N 37°01' E 024°50'1 1.7
2017-Dec-13 14:30N 37°00' E 024°49'1 3.0
2017-Dec-13 14:00N 37°01' E 024°48'2 3.2
2017-Dec-13 13:31N 37°03' E 024°47'2 3.3
2017-Dec-13 13:00N 37°04' E 024°46'2 3.2
2017-Dec-13 12:30N 37°06' E 024°47'2 3.2
2017-Dec-13 12:01N 37°08' E 024°47'2 3.2
2017-Dec-13 11:31N 37°09' E 024°47'2 3.2
2017-Dec-13 11:01N 37°11' E 024°47'2 3.3
2017-Dec-13 10:31N 37°12' E 024°47'2 3.3
2017-Dec-13 10:01N 37°14' E 024°47'2 3.8
2017-Dec-13 09:30N 37°16' E 024°47'1 2.3
2017-Dec-13 08:58N 37°15' E 024°47'1 1.2
2017-Dec-13 08:31N 37°15' E 024°46'2 3.2
2017-Dec-13 08:01N 37°15' E 024°45'2 3.2
2017-Dec-13 07:31N 37°16' E 024°43'2 3.2
2017-Dec-13 07:01N 37°17' E 024°41'2 3.2
2017-Dec-13 06:31N 37°18' E 024°40'2 3.2
2017-Dec-13 06:01N 37°19' E 024°38'2 3.2
2017-Dec-13 05:31N 37°20' E 024°37'2 3.1
2017-Dec-13 05:00N 37°21' E 024°35'2 3.1
2017-Dec-13 04:30N 37°22' E 024°33'18 1.4
2017-Dec-12 15:19N 37°40' E 024°32'1 3.1
2017-Dec-12 15:00N 37°39' E 024°32'16 3.0
2017-Dec-12 09:33N 37°24' E 024°41'1 3.2
2017-Dec-12 09:22N 37°24' E 024°42'1 3.7
2017-Dec-12 09:00N 37°24' E 024°43'0 1.0
2017-Dec-12 08:31N 37°24' E 024°43'2 3.2
2017-Dec-12 07:59N 37°26' E 024°41'2 3.3
2017-Dec-12 07:26N 37°27' E 024°40'1 3.2
2017-Dec-12 07:01N 37°28' E 024°39'24 1.3
2017-Dec-11 12:49N 37°36' E 024°11'2 3.2
2017-Dec-11 12:03N 37°37' E 024°13'0 6.4
2017-Dec-11 11:59N 37°38' E 024°13'0 0.8
2017-Dec-11 11:26N 37°38' E 024°14'3 3.1
2017-Dec-11 10:24N 37°36' E 024°11'26 1.0
2017-Dec-10 09:24N 37°43' E 023°39'1 0.3
2017-Dec-10 05:13N 37°43' E 023°38'2 8.6
2017-Dec-10 05:00N 37°44' E 023°36'4 7.8
2017-Dec-10 04:30N 37°48' E 023°34'1 1.6
2017-Dec-10 03:58N 37°48' E 023°33'3 6.0
2017-Dec-10 03:30N 37°51' E 023°33'3 7.0
2017-Dec-10 03:00N 37°54' E 023°34'3 6.5
2017-Dec-10 02:30N 37°57' E 023°36'1 1.1
2017-Dec-10 01:59N 37°57' E 023°37'0 0.0
2017-Dec-10 01:29N 37°57' E 023°37'0 0.0
2017-Dec-10 00:59N 37°57' E 023°37'0 0.0
2017-Dec-10 00:29N 37°57' E 023°37'0 0.0
2017-Dec-09 23:59N 37°57' E 023°37'0 0.0
2017-Dec-09 23:29N 37°57' E 023°37'0 0.0
2017-Dec-09 22:59N 37°57' E 023°37'0 0.0
2017-Dec-09 22:26N 37°57' E 023°37'0 0.0
2017-Dec-09 21:59N 37°57' E 023°37'0 0.0
2017-Dec-09 21:29N 37°57' E 023°37'0 0.0
2017-Dec-09 20:53N 37°57' E 023°37'0 0.0
2017-Dec-09 20:29N 37°57' E 023°37'0 0.0
2017-Dec-09 19:59N 37°57' E 023°37'0 0.0
2017-Dec-09 19:29N 37°57' E 023°37'0 0.0
2017-Dec-09 18:59N 37°57' E 023°37'0 0.0
2017-Dec-09 18:29N 37°57' E 023°37'0 0.0
2017-Dec-09 17:59N 37°57' E 023°37'0 0.0
2017-Dec-09 17:30N 37°57' E 023°37'3 7.1
2017-Dec-09 17:00N 37°55' E 023°33'5 9.1
2017-Dec-09 16:30N 37°52' E 023°29'4 8.8
2017-Dec-09 16:00N 37°51' E 023°24'1 2.6
2017-Dec-09 15:25N 37°51' E 023°22'2 3.3
2017-Dec-09 14:56N 37°51' E 023°20'2 3.2
2017-Dec-09 14:17N 37°51' E 023°17'1 3.3
2017-Dec-09 14:00N 37°52' E 023°16'2 3.3
2017-Dec-09 13:29N 37°53' E 023°15'1 2.9
2017-Dec-09 13:00N 37°54' E 023°14'2 3.2
2017-Dec-09 12:30N 37°55' E 023°16'2 3.2
2017-Dec-09 12:00N 37°55' E 023°18'2 3.2
2017-Dec-09 11:29N 37°55' E 023°20'1 1.3
2017-Dec-09 10:55N 37°54' E 023°21'2 3.3
2017-Dec-09 10:25N 37°53' E 023°20'1 3.3
2017-Dec-09 09:59N 37°53' E 023°18'2 3.0
2017-Dec-09 09:28N 37°53' E 023°16'1 3.3
2017-Dec-09 09:00N 37°53' E 023°14'1 3.0
2017-Dec-09 08:30N 37°54' E 023°13'1 1.5
2017-Dec-09 08:00N 37°55' E 023°12'1 1.5
2017-Dec-09 07:31N 37°54' E 023°12'2 3.2
2017-Dec-09 07:01N 37°52' E 023°11'2 3.3
2017-Dec-09 06:31N 37°51' E 023°12'1 2.3
2017-Dec-09 06:00N 37°50' E 023°12'2 3.2
2017-Dec-09 05:30N 37°51' E 023°11'2 3.2
2017-Dec-09 05:00N 37°53' E 023°11'2 3.2
2017-Dec-09 04:30N 37°54' E 023°11'52 3.3
2017-Dec-08 13:04N 37°38' E 024°13'6 2.3
2017-Dec-08 10:37N 37°33' E 024°10'1 3.2
2017-Dec-08 10:26N 37°33' E 024°09'1 0.2
2017-Dec-08 05:56N 37°33' E 024°10'6 2.8
2017-Dec-08 03:47N 37°39' E 024°13'4 0.3
2017-Dec-07 11:21N 37°35' E 024°12'3 3.2
2017-Dec-07 10:19N 37°32' E 024°09'  
Track history (hours):
 
Tides and Currents Weather Stations Pressure Air Temp Water Temp Dewpoint Dewpoint Depression Visibility Wind Speed Wind Dir Waves Ship Positions

Nikolaos A

Last reported at 2017-Dec-16 01:23 UTC. Time now 2017-Dec-17 08:23 UTC.
Position N 37°39' E 025°15'.

; draft 2.8 m.

Type: Fishing. MMSI: 237482000.

Date/timePositionNaut miles runAvg speedWind from/ knotsBaromVisibWave heightAir tempDewpointWater temp
2017-Dec-16 01:23N 37°39' E 025°15'4 3.7
2017-Dec-16 00:17N 37°35' E 025°16'2 8.2
2017-Dec-16 00:01N 37°33' E 025°15'4 8.2
2017-Dec-15 23:31N 37°30' E 025°11'4 8.7
2017-Dec-15 23:00N 37°28' E 025°07'9 1.5
2017-Dec-15 17:10N 37°21' E 024°60'2 9.0
2017-Dec-15 17:00N 37°21' E 024°58'5 9.1
2017-Dec-15 16:30N 37°21' E 024°52'5 9.0
2017-Dec-15 16:00N 37°23' E 024°47'2 2.9
2017-Dec-15 15:22N 37°24' E 024°45'1 3.2
2017-Dec-15 15:01N 37°23' E 024°45'2 3.2
2017-Dec-15 14:31N 37°21' E 024°45'2 3.2
2017-Dec-15 14:01N 37°19' E 024°45'2 3.2
2017-Dec-15 13:31N 37°18' E 024°45'2 3.2
2017-Dec-15 13:00N 37°16' E 024°46'3 3.1
2017-Dec-15 12:04N 37°14' E 024°47'0 3.2
2017-Dec-15 12:00N 37°13' E 024°47'2 3.1
2017-Dec-15 11:31N 37°12' E 024°47'2 3.2
2017-Dec-15 11:01N 37°10' E 024°47'2 3.2
2017-Dec-15 10:31N 37°09' E 024°47'2 3.2
2017-Dec-15 10:01N 37°07' E 024°46'1 1.0
2017-Dec-15 09:25N 37°07' E 024°47'1 1.6
2017-Dec-15 09:01N 37°07' E 024°47'2 3.2
2017-Dec-15 08:31N 37°09' E 024°47'2 3.2
2017-Dec-15 08:01N 37°10' E 024°47'2 3.2
2017-Dec-15 07:30N 37°12' E 024°47'2 3.2
2017-Dec-15 07:01N 37°14' E 024°47'2 3.2
2017-Dec-15 06:31N 37°15' E 024°46'2 3.2
2017-Dec-15 06:01N 37°17' E 024°46'2 3.2
2017-Dec-15 05:31N 37°18' E 024°45'2 3.2
2017-Dec-15 05:00N 37°20' E 024°45'2 3.2
2017-Dec-15 04:30N 37°21' E 024°45'2 3.2
2017-Dec-15 04:01N 37°23' E 024°44'14 7.6
2017-Dec-15 02:09N 37°29' E 024°28'5 0.5
2017-Dec-14 16:22N 37°30' E 024°22'9 4.0
2017-Dec-14 14:02N 37°25' E 024°32'0 3.2
2017-Dec-14 14:00N 37°25' E 024°32'2 3.2
2017-Dec-14 13:29N 37°23' E 024°32'2 3.2
2017-Dec-14 12:59N 37°22' E 024°33'2 3.2
2017-Dec-14 12:31N 37°21' E 024°34'2 3.2
2017-Dec-14 12:01N 37°20' E 024°36'3 3.2
2017-Dec-14 11:02N 37°18' E 024°39'0 3.2
2017-Dec-14 11:00N 37°18' E 024°39'2 3.2
2017-Dec-14 10:27N 37°17' E 024°41'1 3.2
2017-Dec-14 10:01N 37°16' E 024°42'2 3.1
2017-Dec-14 09:31N 37°16' E 024°44'3 4.0
2017-Dec-14 08:47N 37°15' E 024°48'0 1.0
2017-Dec-14 08:29N 37°15' E 024°47'1 1.9
2017-Dec-14 08:01N 37°14' E 024°47'2 3.2
2017-Dec-14 07:31N 37°12' E 024°47'2 3.2
2017-Dec-14 07:01N 37°11' E 024°47'2 3.2
2017-Dec-14 06:31N 37°09' E 024°47'2 3.3
2017-Dec-14 06:01N 37°07' E 024°47'2 3.2
2017-Dec-14 05:31N 37°06' E 024°47'2 3.2
2017-Dec-14 05:00N 37°04' E 024°46'2 3.2
2017-Dec-14 04:30N 37°03' E 024°46'2 4.0
2017-Dec-14 04:00N 37°01' E 024°48'3 5.0
2017-Dec-14 03:31N 37°03' E 024°50'4 8.6
2017-Dec-14 03:01N 37°06' E 024°54'2 4.1
2017-Dec-14 02:29N 37°07' E 024°56'1 3.1
2017-Dec-14 02:01N 37°09' E 024°56'2 3.2
2017-Dec-14 01:31N 37°10' E 024°56'2 3.2
2017-Dec-14 01:01N 37°12' E 024°57'2 3.1
2017-Dec-14 00:31N 37°13' E 024°57'2 3.2
2017-Dec-14 00:01N 37°15' E 024°58'2 3.2
2017-Dec-13 23:31N 37°17' E 024°58'2 3.4
2017-Dec-13 23:01N 37°18' E 024°58'5 2.4
2017-Dec-13 21:07N 37°20' E 024°53'0 3.3
2017-Dec-13 21:00N 37°20' E 024°52'2 3.2
2017-Dec-13 20:30N 37°20' E 024°50'1 2.0
2017-Dec-13 20:00N 37°21' E 024°50'2 3.2
2017-Dec-13 19:31N 37°20' E 024°52'2 3.2
2017-Dec-13 18:57N 37°19' E 024°54'1 3.1
2017-Dec-13 18:31N 37°18' E 024°54'2 3.2
2017-Dec-13 18:01N 37°16' E 024°55'2 3.2
2017-Dec-13 17:31N 37°15' E 024°55'2 3.2
2017-Dec-13 17:01N 37°13' E 024°55'2 3.2
2017-Dec-13 16:31N 37°12' E 024°56'3 6.1
2017-Dec-13 16:00N 37°09' E 024°55'4 8.9
2017-Dec-13 15:30N 37°05' E 024°53'4 8.9
2017-Dec-13 15:00N 37°01' E 024°50'1 1.7
2017-Dec-13 14:30N 37°00' E 024°49'1 3.0
2017-Dec-13 14:00N 37°01' E 024°48'2 3.2
2017-Dec-13 13:31N 37°03' E 024°47'2 3.3
2017-Dec-13 13:00N 37°04' E 024°46'2 3.2
2017-Dec-13 12:30N 37°06' E 024°47'2 3.2
2017-Dec-13 12:01N 37°08' E 024°47'2 3.2
2017-Dec-13 11:31N 37°09' E 024°47'2 3.2
2017-Dec-13 11:01N 37°11' E 024°47'2 3.3
2017-Dec-13 10:31N 37°12' E 024°47'2 3.3
2017-Dec-13 10:01N 37°14' E 024°47'2 3.8
2017-Dec-13 09:30N 37°16' E 024°47'1 2.3
2017-Dec-13 08:58N 37°15' E 024°47'1 1.2
2017-Dec-13 08:31N 37°15' E 024°46'2 3.2
2017-Dec-13 08:01N 37°15' E 024°45'2 3.2
2017-Dec-13 07:31N 37°16' E 024°43'2 3.2
2017-Dec-13 07:01N 37°17' E 024°41'2 3.2
2017-Dec-13 06:31N 37°18' E 024°40'2 3.2
2017-Dec-13 06:01N 37°19' E 024°38'2 3.2
2017-Dec-13 05:31N 37°20' E 024°37'2 3.1
2017-Dec-13 05:00N 37°21' E 024°35'2 3.1
2017-Dec-13 04:30N 37°22' E 024°33'18 1.4
2017-Dec-12 15:19N 37°40' E 024°32'1 3.1
2017-Dec-12 15:00N 37°39' E 024°32'16 3.0
2017-Dec-12 09:33N 37°24' E 024°41'1 3.2
2017-Dec-12 09:22N 37°24' E 024°42'1 3.7
2017-Dec-12 09:00N 37°24' E 024°43'0 1.0
2017-Dec-12 08:31N 37°24' E 024°43'2 3.2
2017-Dec-12 07:59N 37°26' E 024°41'2 3.3
2017-Dec-12 07:26N 37°27' E 024°40'1 3.2
2017-Dec-12 07:01N 37°28' E 024°39'24 1.3
2017-Dec-11 12:49N 37°36' E 024°11'2 3.2
2017-Dec-11 12:03N 37°37' E 024°13'0 6.4
2017-Dec-11 11:59N 37°38' E 024°13'0 0.8
2017-Dec-11 11:26N 37°38' E 024°14'3 3.1
2017-Dec-11 10:24N 37°36' E 024°11'26 1.0
2017-Dec-10 09:24N 37°43' E 023°39'1 0.3
2017-Dec-10 05:13N 37°43' E 023°38'2 8.6
2017-Dec-10 05:00N 37°44' E 023°36'4 7.8
2017-Dec-10 04:30N 37°48' E 023°34'1 1.6
2017-Dec-10 03:58N 37°48' E 023°33'3 6.0
2017-Dec-10 03:30N 37°51' E 023°33'3 7.0
2017-Dec-10 03:00N 37°54' E 023°34'3 6.5
2017-Dec-10 02:30N 37°57' E 023°36'1 1.1
2017-Dec-10 01:59N 37°57' E 023°37'0 0.0
2017-Dec-10 01:29N 37°57' E 023°37'0 0.0
2017-Dec-10 00:59N 37°57' E 023°37'0 0.0
2017-Dec-10 00:29N 37°57' E 023°37'0 0.0
2017-Dec-09 23:59N 37°57' E 023°37'0 0.0
2017-Dec-09 23:29N 37°57' E 023°37'0 0.0
2017-Dec-09 22:59N 37°57' E 023°37'0 0.0
2017-Dec-09 22:26N 37°57' E 023°37'0 0.0
2017-Dec-09 21:59N 37°57' E 023°37'0 0.0
2017-Dec-09 21:29N 37°57' E 023°37'0 0.0
2017-Dec-09 20:53N 37°57' E 023°37'0 0.0
2017-Dec-09 20:29N 37°57' E 023°37'0 0.0
2017-Dec-09 19:59N 37°57' E 023°37'0 0.0
2017-Dec-09 19:29N 37°57' E 023°37'0 0.0
2017-Dec-09 18:59N 37°57' E 023°37'0 0.0
2017-Dec-09 18:29N 37°57' E 023°37'0 0.0
2017-Dec-09 17:59N 37°57' E 023°37'0 0.0
2017-Dec-09 17:30N 37°57' E 023°37'3 7.1
2017-Dec-09 17:00N 37°55' E 023°33'5 9.1
2017-Dec-09 16:30N 37°52' E 023°29'4 8.8
2017-Dec-09 16:00N 37°51' E 023°24'1 2.6
2017-Dec-09 15:25N 37°51' E 023°22'2 3.3
2017-Dec-09 14:56N 37°51' E 023°20'2 3.2
2017-Dec-09 14:17N 37°51' E 023°17'1 3.3
2017-Dec-09 14:00N 37°52' E 023°16'2 3.3
2017-Dec-09 13:29N 37°53' E 023°15'1 2.9
2017-Dec-09 13:00N 37°54' E 023°14'2 3.2
2017-Dec-09 12:30N 37°55' E 023°16'2 3.2
2017-Dec-09 12:00N 37°55' E 023°18'2 3.2
2017-Dec-09 11:29N 37°55' E 023°20'1 1.3
2017-Dec-09 10:55N 37°54' E 023°21'2 3.3
2017-Dec-09 10:25N 37°53' E 023°20'1 3.3
2017-Dec-09 09:59N 37°53' E 023°18'2 3.0
2017-Dec-09 09:28N 37°53' E 023°16'1 3.3
2017-Dec-09 09:00N 37°53' E 023°14'1 3.0
2017-Dec-09 08:30N 37°54' E 023°13'1 1.5
2017-Dec-09 08:00N 37°55' E 023°12'1 1.5
2017-Dec-09 07:31N 37°54' E 023°12'2 3.2
2017-Dec-09 07:01N 37°52' E 023°11'2 3.3
2017-Dec-09 06:31N 37°51' E 023°12'1 2.3
2017-Dec-09 06:00N 37°50' E 023°12'2 3.2
2017-Dec-09 05:30N 37°51' E 023°11'2 3.2
2017-Dec-09 05:00N 37°53' E 023°11'2 3.2
2017-Dec-09 04:30N 37°54' E 023°11'52 3.3
2017-Dec-08 13:04N 37°38' E 024°13'6 2.3
2017-Dec-08 10:37N 37°33' E 024°10'1 3.2
2017-Dec-08 10:26N 37°33' E 024°09'1 0.2
2017-Dec-08 05:56N 37°33' E 024°10'6 2.8
2017-Dec-08 03:47N 37°39' E 024°13'4 0.3
2017-Dec-07 11:21N 37°35' E 024°12'3 3.2
2017-Dec-07 10:19N 37°32' E 024°09'  

Dump ship's entire track history